sensor_id;sensor_type;location;lat;lon;timestamp;P1;durP1;ratioP1;P2;durP2;ratioP2
579;SDS011;276;48.392;9.950;2023-11-22T00:01:10;14.33;;;9.30;;
579;SDS011;276;48.392;9.950;2023-11-22T00:03:38;10.30;;;9.40;;
579;SDS011;276;48.392;9.950;2023-11-22T00:06:04;9.17;;;8.37;;
579;SDS011;276;48.392;9.950;2023-11-22T00:08:30;10.13;;;9.13;;
579;SDS011;276;48.392;9.950;2023-11-22T00:10:56;9.37;;;8.47;;
579;SDS011;276;48.392;9.950;2023-11-22T00:13:21;9.33;;;8.53;;
579;SDS011;276;48.392;9.950;2023-11-22T00:15:47;9.40;;;8.40;;
579;SDS011;276;48.392;9.950;2023-11-22T00:18:15;10.30;;;9.40;;
579;SDS011;276;48.392;9.950;2023-11-22T00:20:41;11.10;;;10.00;;
579;SDS011;276;48.392;9.950;2023-11-22T00:23:06;9.47;;;8.30;;
579;SDS011;276;48.392;9.950;2023-11-22T00:25:32;11.07;;;9.07;;
579;SDS011;276;48.392;9.950;2023-11-22T00:28:00;10.00;;;8.97;;
579;SDS011;276;48.392;9.950;2023-11-22T00:30:25;10.70;;;8.60;;
579;SDS011;276;48.392;9.950;2023-11-22T00:32:51;8.13;;;7.47;;
579;SDS011;276;48.392;9.950;2023-11-22T00:35:17;9.40;;;8.37;;
579;SDS011;276;48.392;9.950;2023-11-22T00:37:42;8.97;;;8.07;;
579;SDS011;276;48.392;9.950;2023-11-22T00:40:08;8.43;;;7.73;;
579;SDS011;276;48.392;9.950;2023-11-22T00:42:37;9.20;;;7.73;;
579;SDS011;276;48.392;9.950;2023-11-22T00:45:04;11.70;;;8.33;;
579;SDS011;276;48.392;9.950;2023-11-22T00:47:34;9.83;;;8.93;;
579;SDS011;276;48.392;9.950;2023-11-22T00:50:01;9.20;;;7.77;;
579;SDS011;276;48.392;9.950;2023-11-22T00:52:28;7.83;;;7.13;;
579;SDS011;276;48.392;9.950;2023-11-22T00:54:54;10.87;;;9.73;;
579;SDS011;276;48.392;9.950;2023-11-22T00:57:22;11.87;;;9.03;;
579;SDS011;276;48.392;9.950;2023-11-22T00:59:48;9.10;;;7.80;;
579;SDS011;276;48.392;9.950;2023-11-22T01:02:14;8.50;;;7.80;;
579;SDS011;276;48.392;9.950;2023-11-22T01:04:43;12.00;;;8.97;;
579;SDS011;276;48.392;9.950;2023-11-22T01:07:08;7.90;;;7.17;;
579;SDS011;276;48.392;9.950;2023-11-22T01:09:34;9.40;;;8.50;;
579;SDS011;276;48.392;9.950;2023-11-22T01:12:00;9.10;;;8.30;;
579;SDS011;276;48.392;9.950;2023-11-22T01:14:29;11.03;;;8.67;;
579;SDS011;276;48.392;9.950;2023-11-22T01:16:54;9.10;;;8.20;;
579;SDS011;276;48.392;9.950;2023-11-22T01:19:22;8.60;;;7.83;;
579;SDS011;276;48.392;9.950;2023-11-22T01:21:51;9.70;;;8.70;;
579;SDS011;276;48.392;9.950;2023-11-22T01:24:19;9.17;;;8.13;;
579;SDS011;276;48.392;9.950;2023-11-22T01:26:47;8.33;;;7.63;;
579;SDS011;276;48.392;9.950;2023-11-22T01:29:12;8.23;;;7.53;;
579;SDS011;276;48.392;9.950;2023-11-22T01:31:40;8.60;;;7.83;;
579;SDS011;276;48.392;9.950;2023-11-22T01:34:09;9.00;;;8.10;;
579;SDS011;276;48.392;9.950;2023-11-22T01:36:34;9.10;;;8.30;;
579;SDS011;276;48.392;9.950;2023-11-22T01:39:00;9.67;;;8.87;;
579;SDS011;276;48.392;9.950;2023-11-22T01:41:28;10.53;;;9.37;;
579;SDS011;276;48.392;9.950;2023-11-22T01:43:55;9.47;;;8.47;;
579;SDS011;276;48.392;9.950;2023-11-22T01:46:24;10.07;;;9.13;;
579;SDS011;276;48.392;9.950;2023-11-22T01:48:50;8.93;;;8.00;;
579;SDS011;276;48.392;9.950;2023-11-22T01:51:25;9.00;;;8.20;;
579;SDS011;276;48.392;9.950;2023-11-22T01:53:53;9.17;;;8.40;;
579;SDS011;276;48.392;9.950;2023-11-22T01:56:25;8.50;;;7.80;;
579;SDS011;276;48.392;9.950;2023-11-22T01:58:51;9.10;;;8.30;;
579;SDS011;276;48.392;9.950;2023-11-22T02:01:19;9.50;;;6.87;;
579;SDS011;276;48.392;9.950;2023-11-22T02:03:45;5.53;;;5.03;;
579;SDS011;276;48.392;9.950;2023-11-22T02:06:17;3.80;;;3.50;;
579;SDS011;276;48.392;9.950;2023-11-22T02:08:44;4.30;;;3.80;;
579;SDS011;276;48.392;9.950;2023-11-22T02:11:12;3.43;;;3.13;;
579;SDS011;276;48.392;9.950;2023-11-22T02:13:40;3.97;;;3.67;;
579;SDS011;276;48.392;9.950;2023-11-22T02:16:05;3.33;;;3.13;;
579;SDS011;276;48.392;9.950;2023-11-22T02:18:31;4.00;;;3.70;;
579;SDS011;276;48.392;9.950;2023-11-22T02:20:57;3.70;;;3.40;;
579;SDS011;276;48.392;9.950;2023-11-22T02:23:23;5.03;;;3.50;;
579;SDS011;276;48.392;9.950;2023-11-22T02:25:51;2.40;;;2.20;;
579;SDS011;276;48.392;9.950;2023-11-22T02:28:19;2.43;;;1.97;;
579;SDS011;276;48.392;9.950;2023-11-22T02:30:45;2.00;;;1.90;;
579;SDS011;276;48.392;9.950;2023-11-22T02:33:11;1.70;;;1.60;;
579;SDS011;276;48.392;9.950;2023-11-22T02:35:36;1.27;;;1.17;;
579;SDS011;276;48.392;9.950;2023-11-22T02:38:05;1.60;;;1.50;;
579;SDS011;276;48.392;9.950;2023-11-22T02:40:33;1.80;;;1.70;;
579;SDS011;276;48.392;9.950;2023-11-22T02:42:59;1.37;;;1.23;;
579;SDS011;276;48.392;9.950;2023-11-22T02:45:32;2.07;;;1.80;;
579;SDS011;276;48.392;9.950;2023-11-22T02:47:58;1.00;;;0.90;;
579;SDS011;276;48.392;9.950;2023-11-22T02:50:26;1.70;;;1.60;;
579;SDS011;276;48.392;9.950;2023-11-22T02:52:52;1.87;;;1.77;;
579;SDS011;276;48.392;9.950;2023-11-22T02:55:18;1.47;;;1.37;;
579;SDS011;276;48.392;9.950;2023-11-22T02:57:44;1.83;;;1.73;;
579;SDS011;276;48.392;9.950;2023-11-22T03:00:10;1.67;;;1.57;;
579;SDS011;276;48.392;9.950;2023-11-22T03:02:40;1.13;;;1.03;;
579;SDS011;276;48.392;9.950;2023-11-22T03:05:10;1.53;;;1.43;;
579;SDS011;276;48.392;9.950;2023-11-22T03:07:36;1.70;;;1.43;;
579;SDS011;276;48.392;9.950;2023-11-22T03:10:03;1.47;;;1.37;;
579;SDS011;276;48.392;9.950;2023-11-22T03:12:30;1.57;;;1.47;;
579;SDS011;276;48.392;9.950;2023-11-22T03:14:55;1.60;;;1.50;;
579;SDS011;276;48.392;9.950;2023-11-22T03:17:25;2.00;;;1.70;;
579;SDS011;276;48.392;9.950;2023-11-22T03:19:53;1.50;;;1.40;;
579;SDS011;276;48.392;9.950;2023-11-22T03:22:20;1.70;;;1.60;;
579;SDS011;276;48.392;9.950;2023-11-22T03:24:46;1.73;;;1.63;;
579;SDS011;276;48.392;9.950;2023-11-22T03:27:17;1.43;;;1.30;;
579;SDS011;276;48.392;9.950;2023-11-22T03:29:43;1.60;;;1.50;;
579;SDS011;276;48.392;9.950;2023-11-22T03:32:09;2.43;;;1.90;;
579;SDS011;276;48.392;9.950;2023-11-22T03:34:36;1.90;;;1.80;;
579;SDS011;276;48.392;9.950;2023-11-22T03:37:04;2.17;;;2.07;;
579;SDS011;276;48.392;9.950;2023-11-22T03:39:32;1.80;;;1.70;;
579;SDS011;276;48.392;9.950;2023-11-22T03:42:00;2.27;;;1.90;;
579;SDS011;276;48.392;9.950;2023-11-22T03:44:28;2.77;;;1.90;;
579;SDS011;276;48.392;9.950;2023-11-22T03:46:55;1.83;;;1.70;;
579;SDS011;276;48.392;9.950;2023-11-22T03:49:20;2.37;;;2.07;;
579;SDS011;276;48.392;9.950;2023-11-22T03:51:46;2.37;;;2.17;;
579;SDS011;276;48.392;9.950;2023-11-22T03:54:18;2.00;;;1.90;;
579;SDS011;276;48.392;9.950;2023-11-22T03:56:43;2.03;;;1.93;;
579;SDS011;276;48.392;9.950;2023-11-22T03:59:11;2.10;;;1.90;;
579;SDS011;276;48.392;9.950;2023-11-22T04:01:37;2.20;;;2.10;;
579;SDS011;276;48.392;9.950;2023-11-22T04:04:03;2.27;;;2.07;;
579;SDS011;276;48.392;9.950;2023-11-22T04:06:28;2.43;;;2.23;;
579;SDS011;276;48.392;9.950;2023-11-22T04:08:58;2.13;;;1.93;;
579;SDS011;276;48.392;9.950;2023-11-22T04:11:24;3.20;;;2.90;;
579;SDS011;276;48.392;9.950;2023-11-22T04:13:50;2.03;;;1.90;;
579;SDS011;276;48.392;9.950;2023-11-22T04:16:16;2.20;;;2.00;;
579;SDS011;276;48.392;9.950;2023-11-22T04:18:42;1.87;;;1.77;;
579;SDS011;276;48.392;9.950;2023-11-22T04:21:08;1.80;;;1.70;;
579;SDS011;276;48.392;9.950;2023-11-22T04:23:34;2.10;;;2.00;;
579;SDS011;276;48.392;9.950;2023-11-22T04:26:00;2.27;;;2.07;;
579;SDS011;276;48.392;9.950;2023-11-22T04:28:26;2.80;;;2.60;;
579;SDS011;276;48.392;9.950;2023-11-22T04:30:57;3.00;;;2.77;;
579;SDS011;276;48.392;9.950;2023-11-22T04:33:23;2.87;;;2.67;;
579;SDS011;276;48.392;9.950;2023-11-22T04:35:49;3.23;;;2.43;;
579;SDS011;276;48.392;9.950;2023-11-22T04:38:15;5.97;;;3.13;;
579;SDS011;276;48.392;9.950;2023-11-22T04:40:42;3.93;;;3.63;;
579;SDS011;276;48.392;9.950;2023-11-22T04:43:08;3.70;;;3.40;;
579;SDS011;276;48.392;9.950;2023-11-22T04:45:36;5.60;;;3.30;;
579;SDS011;276;48.392;9.950;2023-11-22T04:48:05;3.93;;;3.63;;
579;SDS011;276;48.392;9.950;2023-11-22T04:50:33;3.90;;;3.50;;
579;SDS011;276;48.392;9.950;2023-11-22T04:53:01;5.00;;;4.60;;
579;SDS011;276;48.392;9.950;2023-11-22T04:55:26;5.47;;;5.07;;
579;SDS011;276;48.392;9.950;2023-11-22T04:57:53;4.07;;;3.67;;
579;SDS011;276;48.392;9.950;2023-11-22T05:00:19;5.00;;;4.60;;
579;SDS011;276;48.392;9.950;2023-11-22T05:02:48;5.43;;;5.03;;
579;SDS011;276;48.392;9.950;2023-11-22T05:05:16;6.00;;;5.40;;
579;SDS011;276;48.392;9.950;2023-11-22T05:07:41;5.87;;;5.27;;
579;SDS011;276;48.392;9.950;2023-11-22T05:10:09;5.30;;;4.80;;
579;SDS011;276;48.392;9.950;2023-11-22T05:12:35;5.80;;;5.30;;
579;SDS011;276;48.392;9.950;2023-11-22T05:15:05;5.47;;;5.07;;
579;SDS011;276;48.392;9.950;2023-11-22T05:17:32;7.00;;;6.40;;
579;SDS011;276;48.392;9.950;2023-11-22T05:20:00;5.93;;;5.37;;
579;SDS011;276;48.392;9.950;2023-11-22T05:22:29;6.03;;;5.53;;
579;SDS011;276;48.392;9.950;2023-11-22T05:24:55;7.00;;;6.27;;
579;SDS011;276;48.392;9.950;2023-11-22T05:27:23;6.47;;;5.87;;
579;SDS011;276;48.392;9.950;2023-11-22T05:29:50;6.53;;;6.03;;
579;SDS011;276;48.392;9.950;2023-11-22T05:32:16;7.80;;;5.83;;
579;SDS011;276;48.392;9.950;2023-11-22T05:34:42;7.17;;;6.47;;
579;SDS011;276;48.392;9.950;2023-11-22T05:37:08;6.97;;;6.27;;
579;SDS011;276;48.392;9.950;2023-11-22T05:39:36;9.03;;;7.40;;
579;SDS011;276;48.392;9.950;2023-11-22T05:42:02;7.87;;;7.03;;
579;SDS011;276;48.392;9.950;2023-11-22T05:44:28;7.63;;;6.50;;
579;SDS011;276;48.392;9.950;2023-11-22T05:46:55;7.03;;;6.40;;
579;SDS011;276;48.392;9.950;2023-11-22T05:49:22;8.40;;;6.63;;
579;SDS011;276;48.392;9.950;2023-11-22T05:51:52;7.00;;;6.30;;
579;SDS011;276;48.392;9.950;2023-11-22T05:54:19;8.30;;;7.43;;
579;SDS011;276;48.392;9.950;2023-11-22T05:56:47;7.83;;;6.80;;
579;SDS011;276;48.392;9.950;2023-11-22T05:59:13;7.20;;;6.07;;
579;SDS011;276;48.392;9.950;2023-11-22T06:01:39;8.50;;;6.67;;
579;SDS011;276;48.392;9.950;2023-11-22T06:04:04;7.40;;;6.70;;
579;SDS011;276;48.392;9.950;2023-11-22T06:06:30;7.50;;;6.80;;
579;SDS011;276;48.392;9.950;2023-11-22T06:08:58;7.50;;;6.80;;
579;SDS011;276;48.392;9.950;2023-11-22T06:11:25;7.20;;;6.50;;
579;SDS011;276;48.392;9.950;2023-11-22T06:13:53;6.87;;;6.20;;
579;SDS011;276;48.392;9.950;2023-11-22T06:16:23;7.70;;;6.53;;
579;SDS011;276;48.392;9.950;2023-11-22T06:18:54;6.30;;;5.70;;
579;SDS011;276;48.392;9.950;2023-11-22T06:21:19;5.37;;;4.87;;
579;SDS011;276;48.392;9.950;2023-11-22T06:23:45;7.27;;;6.57;;
579;SDS011;276;48.392;9.950;2023-11-22T06:26:17;7.10;;;5.83;;
579;SDS011;276;48.392;9.950;2023-11-22T06:28:42;5.90;;;5.37;;
579;SDS011;276;48.392;9.950;2023-11-22T06:31:16;7.27;;;5.07;;
579;SDS011;276;48.392;9.950;2023-11-22T06:33:46;5.63;;;5.13;;
579;SDS011;276;48.392;9.950;2023-11-22T06:36:11;5.43;;;5.03;;
579;SDS011;276;48.392;9.950;2023-11-22T06:38:39;5.87;;;5.40;;
579;SDS011;276;48.392;9.950;2023-11-22T06:41:07;5.87;;;5.27;;
579;SDS011;276;48.392;9.950;2023-11-22T06:43:33;5.90;;;5.40;;
579;SDS011;276;48.392;9.950;2023-11-22T06:45:58;5.63;;;5.17;;
579;SDS011;276;48.392;9.950;2023-11-22T06:48:25;4.80;;;4.40;;
579;SDS011;276;48.392;9.950;2023-11-22T06:50:53;6.50;;;5.97;;
579;SDS011;276;48.392;9.950;2023-11-22T06:53:19;5.87;;;5.27;;
579;SDS011;276;48.392;9.950;2023-11-22T06:55:50;5.17;;;4.67;;
579;SDS011;276;48.392;9.950;2023-11-22T06:58:16;4.80;;;4.40;;
579;SDS011;276;48.392;9.950;2023-11-22T07:00:44;5.37;;;4.20;;
579;SDS011;276;48.392;9.950;2023-11-22T07:03:13;4.90;;;4.40;;
579;SDS011;276;48.392;9.950;2023-11-22T07:05:41;5.73;;;4.73;;
579;SDS011;276;48.392;9.950;2023-11-22T07:08:09;4.30;;;3.90;;
579;SDS011;276;48.392;9.950;2023-11-22T07:10:36;4.83;;;4.23;;
579;SDS011;276;48.392;9.950;2023-11-22T07:13:01;4.23;;;3.80;;
579;SDS011;276;48.392;9.950;2023-11-22T07:15:30;4.50;;;4.10;;
579;SDS011;276;48.392;9.950;2023-11-22T07:17:55;4.17;;;3.87;;
579;SDS011;276;48.392;9.950;2023-11-22T07:20:21;3.60;;;3.30;;
579;SDS011;276;48.392;9.950;2023-11-22T07:22:48;2.60;;;2.40;;
579;SDS011;276;48.392;9.950;2023-11-22T07:25:20;3.27;;;2.97;;
579;SDS011;276;48.392;9.950;2023-11-22T07:27:50;2.80;;;2.60;;
579;SDS011;276;48.392;9.950;2023-11-22T07:30:16;3.07;;;2.87;;
579;SDS011;276;48.392;9.950;2023-11-22T07:32:47;2.80;;;2.60;;
579;SDS011;276;48.392;9.950;2023-11-22T07:35:19;3.07;;;2.80;;
579;SDS011;276;48.392;9.950;2023-11-22T07:37:47;2.90;;;2.70;;
579;SDS011;276;48.392;9.950;2023-11-22T07:40:13;2.80;;;2.60;;
579;SDS011;276;48.392;9.950;2023-11-22T07:42:40;2.50;;;2.30;;
579;SDS011;276;48.392;9.950;2023-11-22T07:45:06;3.43;;;3.13;;
579;SDS011;276;48.392;9.950;2023-11-22T07:47:35;3.13;;;2.77;;
579;SDS011;276;48.392;9.950;2023-11-22T07:50:01;4.90;;;2.80;;
579;SDS011;276;48.392;9.950;2023-11-22T07:52:31;4.03;;;2.73;;
579;SDS011;276;48.392;9.950;2023-11-22T07:54:59;4.17;;;3.83;;
579;SDS011;276;48.392;9.950;2023-11-22T07:57:25;9.00;;;8.13;;
579;SDS011;276;48.392;9.950;2023-11-22T07:59:57;4.40;;;4.00;;
579;SDS011;276;48.392;9.950;2023-11-22T08:02:23;5.30;;;3.23;;
579;SDS011;276;48.392;9.950;2023-11-22T08:04:48;2.90;;;2.70;;
579;SDS011;276;48.392;9.950;2023-11-22T08:07:17;3.27;;;2.77;;
579;SDS011;276;48.392;9.950;2023-11-22T08:09:47;2.70;;;2.50;;
579;SDS011;276;48.392;9.950;2023-11-22T08:12:16;3.30;;;2.93;;
579;SDS011;276;48.392;9.950;2023-11-22T08:14:44;3.00;;;2.80;;
579;SDS011;276;48.392;9.950;2023-11-22T08:17:09;2.90;;;2.70;;
579;SDS011;276;48.392;9.950;2023-11-22T08:19:38;2.70;;;2.50;;
579;SDS011;276;48.392;9.950;2023-11-22T08:22:05;3.57;;;2.87;;
579;SDS011;276;48.392;9.950;2023-11-22T08:24:33;3.03;;;2.83;;
579;SDS011;276;48.392;9.950;2023-11-22T08:26:58;2.57;;;2.30;;
579;SDS011;276;48.392;9.950;2023-11-22T08:29:28;2.70;;;2.40;;
579;SDS011;276;48.392;9.950;2023-11-22T08:31:53;2.70;;;2.50;;
579;SDS011;276;48.392;9.950;2023-11-22T08:34:19;2.73;;;2.53;;
579;SDS011;276;48.392;9.950;2023-11-22T08:36:45;2.37;;;2.17;;
579;SDS011;276;48.392;9.950;2023-11-22T08:39:10;3.27;;;2.97;;
579;SDS011;276;48.392;9.950;2023-11-22T08:41:38;2.40;;;2.20;;
579;SDS011;276;48.392;9.950;2023-11-22T08:44:08;2.67;;;2.47;;
579;SDS011;276;48.392;9.950;2023-11-22T08:46:34;3.13;;;2.20;;
579;SDS011;276;48.392;9.950;2023-11-22T08:49:04;2.50;;;2.30;;
579;SDS011;276;48.392;9.950;2023-11-22T08:51:33;3.47;;;3.20;;
579;SDS011;276;48.392;9.950;2023-11-22T08:54:01;3.70;;;3.40;;
579;SDS011;276;48.392;9.950;2023-11-22T08:56:29;3.00;;;2.80;;
579;SDS011;276;48.392;9.950;2023-11-22T08:59:00;3.60;;;3.30;;
579;SDS011;276;48.392;9.950;2023-11-22T09:01:25;2.90;;;2.70;;
579;SDS011;276;48.392;9.950;2023-11-22T09:03:56;2.90;;;2.70;;
579;SDS011;276;48.392;9.950;2023-11-22T09:06:22;4.43;;;3.07;;
579;SDS011;276;48.392;9.950;2023-11-22T09:08:54;3.70;;;3.40;;
579;SDS011;276;48.392;9.950;2023-11-22T09:11:22;3.10;;;2.90;;
579;SDS011;276;48.392;9.950;2023-11-22T09:13:50;3.33;;;3.03;;
579;SDS011;276;48.392;9.950;2023-11-22T09:16:21;3.27;;;3.07;;
579;SDS011;276;48.392;9.950;2023-11-22T09:18:50;3.23;;;3.03;;
579;SDS011;276;48.392;9.950;2023-11-22T09:21:21;3.63;;;3.33;;
579;SDS011;276;48.392;9.950;2023-11-22T09:23:46;3.33;;;3.13;;
579;SDS011;276;48.392;9.950;2023-11-22T09:26:13;4.40;;;3.60;;
579;SDS011;276;48.392;9.950;2023-11-22T09:28:43;4.93;;;4.40;;
579;SDS011;276;48.392;9.950;2023-11-22T09:31:09;4.90;;;4.40;;
579;SDS011;276;48.392;9.950;2023-11-22T09:33:42;4.67;;;3.93;;
579;SDS011;276;48.392;9.950;2023-11-22T09:36:08;4.77;;;4.00;;
579;SDS011;276;48.392;9.950;2023-11-22T09:38:34;4.03;;;3.73;;
579;SDS011;276;48.392;9.950;2023-11-22T09:41:02;3.80;;;3.50;;
579;SDS011;276;48.392;9.950;2023-11-22T09:43:28;3.30;;;3.10;;
579;SDS011;276;48.392;9.950;2023-11-22T09:45:56;4.00;;;3.70;;
579;SDS011;276;48.392;9.950;2023-11-22T09:48:22;5.10;;;4.57;;
579;SDS011;276;48.392;9.950;2023-11-22T09:53:45;4.27;;;3.87;;
579;SDS011;276;48.392;9.950;2023-11-22T09:56:29;4.23;;;3.93;;
579;SDS011;276;48.392;9.950;2023-11-22T09:58:59;4.30;;;3.87;;
579;SDS011;276;48.392;9.950;2023-11-22T10:01:31;4.70;;;4.30;;
579;SDS011;276;48.392;9.950;2023-11-22T10:03:58;5.40;;;4.90;;
579;SDS011;276;48.392;9.950;2023-11-22T10:06:24;6.00;;;5.03;;
579;SDS011;276;48.392;9.950;2023-11-22T10:08:52;7.80;;;5.27;;
579;SDS011;276;48.392;9.950;2023-11-22T10:11:18;4.87;;;4.47;;
579;SDS011;276;48.392;9.950;2023-11-22T10:13:51;4.70;;;4.30;;
579;SDS011;276;48.392;9.950;2023-11-22T10:16:18;4.23;;;3.83;;
579;SDS011;276;48.392;9.950;2023-11-22T10:18:49;4.37;;;3.97;;
579;SDS011;276;48.392;9.950;2023-11-22T10:23:55;3.87;;;3.57;;
579;SDS011;276;48.392;9.950;2023-11-22T10:26:24;4.10;;;3.80;;
579;SDS011;276;48.392;9.950;2023-11-22T10:28:50;4.13;;;3.83;;
579;SDS011;276;48.392;9.950;2023-11-22T10:31:19;3.93;;;3.63;;
579;SDS011;276;48.392;9.950;2023-11-22T10:33:47;4.50;;;4.10;;
579;SDS011;276;48.392;9.950;2023-11-22T10:36:13;4.50;;;4.20;;
579;SDS011;276;48.392;9.950;2023-11-22T10:38:40;4.80;;;4.50;;
579;SDS011;276;48.392;9.950;2023-11-22T10:41:11;4.37;;;3.97;;
579;SDS011;276;48.392;9.950;2023-11-22T10:43:39;4.53;;;4.17;;
579;SDS011;276;48.392;9.950;2023-11-22T10:46:07;4.77;;;4.37;;
579;SDS011;276;48.392;9.950;2023-11-22T10:48:37;5.40;;;5.00;;
579;SDS011;276;48.392;9.950;2023-11-22T10:51:05;4.97;;;4.57;;
579;SDS011;276;48.392;9.950;2023-11-22T10:53:36;6.10;;;5.37;;
579;SDS011;276;48.392;9.950;2023-11-22T10:56:16;5.10;;;4.33;;
579;SDS011;276;48.392;9.950;2023-11-22T10:58:51;4.17;;;3.80;;
579;SDS011;276;48.392;9.950;2023-11-22T11:01:21;4.83;;;4.53;;
579;SDS011;276;48.392;9.950;2023-11-22T11:04:06;5.37;;;4.97;;
579;SDS011;276;48.392;9.950;2023-11-22T11:06:38;5.20;;;4.73;;
579;SDS011;276;48.392;9.950;2023-11-22T11:09:11;5.03;;;4.63;;
579;SDS011;276;48.392;9.950;2023-11-22T11:11:40;5.13;;;4.70;;
579;SDS011;276;48.392;9.950;2023-11-22T11:14:07;5.67;;;5.17;;
579;SDS011;276;48.392;9.950;2023-11-22T11:16:40;5.70;;;5.30;;
579;SDS011;276;48.392;9.950;2023-11-22T11:19:13;4.30;;;4.00;;
579;SDS011;276;48.392;9.950;2023-11-22T11:21:42;4.90;;;4.60;;
579;SDS011;276;48.392;9.950;2023-11-22T11:24:10;5.03;;;4.63;;
579;SDS011;276;48.392;9.950;2023-11-22T11:26:36;5.80;;;5.30;;
579;SDS011;276;48.392;9.950;2023-11-22T11:29:04;5.60;;;5.20;;
579;SDS011;276;48.392;9.950;2023-11-22T11:31:33;6.03;;;5.63;;
579;SDS011;276;48.392;9.950;2023-11-22T11:34:06;6.07;;;5.57;;
579;SDS011;276;48.392;9.950;2023-11-22T11:36:32;4.57;;;4.20;;
579;SDS011;276;48.392;9.950;2023-11-22T11:38:59;6.20;;;5.60;;
579;SDS011;276;48.392;9.950;2023-11-22T11:43:55;4.87;;;4.50;;
579;SDS011;276;48.392;9.950;2023-11-22T11:46:28;5.27;;;4.87;;
579;SDS011;276;48.392;9.950;2023-11-22T11:48:55;5.27;;;4.87;;
579;SDS011;276;48.392;9.950;2023-11-22T11:51:22;4.97;;;4.57;;
579;SDS011;276;48.392;9.950;2023-11-22T11:53:55;4.80;;;4.30;;
579;SDS011;276;48.392;9.950;2023-11-22T11:56:21;5.43;;;4.93;;
579;SDS011;276;48.392;9.950;2023-11-22T11:58:51;6.60;;;6.00;;
579;SDS011;276;48.392;9.950;2023-11-22T12:01:17;6.00;;;5.40;;
579;SDS011;276;48.392;9.950;2023-11-22T12:03:48;4.90;;;4.50;;
579;SDS011;276;48.392;9.950;2023-11-22T12:06:19;5.30;;;4.80;;
579;SDS011;276;48.392;9.950;2023-11-22T12:08:49;5.40;;;4.90;;
579;SDS011;276;48.392;9.950;2023-11-22T12:11:15;5.00;;;4.60;;
579;SDS011;276;48.392;9.950;2023-11-22T12:13:43;5.23;;;4.83;;
579;SDS011;276;48.392;9.950;2023-11-22T12:16:14;5.43;;;5.03;;
579;SDS011;276;48.392;9.950;2023-11-22T12:18:43;5.13;;;4.60;;
579;SDS011;276;48.392;9.950;2023-11-22T12:21:16;5.10;;;4.60;;
579;SDS011;276;48.392;9.950;2023-11-22T12:23:45;7.33;;;6.73;;
579;SDS011;276;48.392;9.950;2023-11-22T12:26:15;6.63;;;6.03;;
579;SDS011;276;48.392;9.950;2023-11-22T12:28:45;6.60;;;6.00;;
579;SDS011;276;48.392;9.950;2023-11-22T12:31:13;5.27;;;4.87;;
579;SDS011;276;48.392;9.950;2023-11-22T12:33:40;5.20;;;4.70;;
579;SDS011;276;48.392;9.950;2023-11-22T12:36:10;5.73;;;4.80;;
579;SDS011;276;48.392;9.950;2023-11-22T12:38:42;7.67;;;5.30;;
579;SDS011;276;48.392;9.950;2023-11-22T12:41:08;5.47;;;4.97;;
579;SDS011;276;48.392;9.950;2023-11-22T12:43:39;4.83;;;4.43;;
579;SDS011;276;48.392;9.950;2023-11-22T12:46:06;5.53;;;5.00;;
579;SDS011;276;48.392;9.950;2023-11-22T12:48:41;4.67;;;4.27;;
579;SDS011;276;48.392;9.950;2023-11-22T12:51:16;4.70;;;4.30;;
579;SDS011;276;48.392;9.950;2023-11-22T12:53:51;5.37;;;4.87;;
579;SDS011;276;48.392;9.950;2023-11-22T12:56:22;5.70;;;5.20;;
579;SDS011;276;48.392;9.950;2023-11-22T12:58:53;5.43;;;4.93;;
579;SDS011;276;48.392;9.950;2023-11-22T13:01:18;5.27;;;4.87;;
579;SDS011;276;48.392;9.950;2023-11-22T13:03:45;5.83;;;4.40;;
579;SDS011;276;48.392;9.950;2023-11-22T13:06:11;5.77;;;5.03;;
579;SDS011;276;48.392;9.950;2023-11-22T13:08:39;5.30;;;4.90;;
579;SDS011;276;48.392;9.950;2023-11-22T13:11:07;4.40;;;4.00;;
579;SDS011;276;48.392;9.950;2023-11-22T13:13:33;5.80;;;4.93;;
579;SDS011;276;48.392;9.950;2023-11-22T13:16:00;5.50;;;5.10;;
579;SDS011;276;48.392;9.950;2023-11-22T13:18:32;5.33;;;4.83;;
579;SDS011;276;48.392;9.950;2023-11-22T13:20:58;4.07;;;3.67;;
579;SDS011;276;48.392;9.950;2023-11-22T13:23:26;5.33;;;4.83;;
579;SDS011;276;48.392;9.950;2023-11-22T13:25:54;4.77;;;4.37;;
579;SDS011;276;48.392;9.950;2023-11-22T13:28:19;5.53;;;5.13;;
579;SDS011;276;48.392;9.950;2023-11-22T13:30:49;5.17;;;4.77;;
579;SDS011;276;48.392;9.950;2023-11-22T13:33:15;4.30;;;4.00;;
579;SDS011;276;48.392;9.950;2023-11-22T13:35:46;4.97;;;4.57;;
579;SDS011;276;48.392;9.950;2023-11-22T13:38:15;5.30;;;4.83;;
579;SDS011;276;48.392;9.950;2023-11-22T13:40:41;5.43;;;4.93;;
579;SDS011;276;48.392;9.950;2023-11-22T13:43:13;5.50;;;5.00;;
579;SDS011;276;48.392;9.950;2023-11-22T13:45:39;6.17;;;4.67;;
579;SDS011;276;48.392;9.950;2023-11-22T13:48:06;4.80;;;4.40;;
579;SDS011;276;48.392;9.950;2023-11-22T13:50:36;5.27;;;4.87;;
579;SDS011;276;48.392;9.950;2023-11-22T13:53:02;4.77;;;4.37;;
579;SDS011;276;48.392;9.950;2023-11-22T13:55:32;4.70;;;4.30;;
579;SDS011;276;48.392;9.950;2023-11-22T13:58:02;5.70;;;5.17;;
579;SDS011;276;48.392;9.950;2023-11-22T14:00:29;6.43;;;5.23;;
579;SDS011;276;48.392;9.950;2023-11-22T14:03:00;5.33;;;4.90;;
579;SDS011;276;48.392;9.950;2023-11-22T14:05:31;5.00;;;4.57;;
579;SDS011;276;48.392;9.950;2023-11-22T14:07:59;5.20;;;4.80;;
579;SDS011;276;48.392;9.950;2023-11-22T14:10:25;5.77;;;5.27;;
579;SDS011;276;48.392;9.950;2023-11-22T14:12:51;6.43;;;5.83;;
579;SDS011;276;48.392;9.950;2023-11-22T14:15:17;6.83;;;6.23;;
579;SDS011;276;48.392;9.950;2023-11-22T14:17:46;6.00;;;5.50;;
579;SDS011;276;48.392;9.950;2023-11-22T14:20:14;5.77;;;5.07;;
579;SDS011;276;48.392;9.950;2023-11-22T14:22:45;5.00;;;4.50;;
579;SDS011;276;48.392;9.950;2023-11-22T14:25:11;5.43;;;4.93;;
579;SDS011;276;48.392;9.950;2023-11-22T14:27:41;5.60;;;5.20;;
579;SDS011;276;48.392;9.950;2023-11-22T14:30:10;4.73;;;4.33;;
579;SDS011;276;48.392;9.950;2023-11-22T14:32:39;5.50;;;5.00;;
579;SDS011;276;48.392;9.950;2023-11-22T14:35:05;5.83;;;4.87;;
579;SDS011;276;48.392;9.950;2023-11-22T14:37:34;6.23;;;5.63;;
579;SDS011;276;48.392;9.950;2023-11-22T14:40:04;5.30;;;4.90;;
579;SDS011;276;48.392;9.950;2023-11-22T14:42:38;5.87;;;5.30;;
579;SDS011;276;48.392;9.950;2023-11-22T14:45:17;6.30;;;5.70;;
579;SDS011;276;48.392;9.950;2023-11-22T14:47:46;5.03;;;4.57;;
579;SDS011;276;48.392;9.950;2023-11-22T14:50:14;5.70;;;5.20;;
579;SDS011;276;48.392;9.950;2023-11-22T14:52:44;5.43;;;5.03;;
579;SDS011;276;48.392;9.950;2023-11-22T14:55:13;8.50;;;7.70;;
579;SDS011;276;48.392;9.950;2023-11-22T14:57:43;5.90;;;5.40;;
579;SDS011;276;48.392;9.950;2023-11-22T15:00:09;6.33;;;5.73;;
579;SDS011;276;48.392;9.950;2023-11-22T15:02:39;5.43;;;5.03;;
579;SDS011;276;48.392;9.950;2023-11-22T15:05:07;5.23;;;4.83;;
579;SDS011;276;48.392;9.950;2023-11-22T15:07:35;5.30;;;4.87;;
579;SDS011;276;48.392;9.950;2023-11-22T15:10:06;4.73;;;4.40;;
579;SDS011;276;48.392;9.950;2023-11-22T15:12:33;6.17;;;5.10;;
579;SDS011;276;48.392;9.950;2023-11-22T15:14:59;4.93;;;4.43;;
579;SDS011;276;48.392;9.950;2023-11-22T15:17:25;4.50;;;4.10;;
579;SDS011;276;48.392;9.950;2023-11-22T15:19:51;5.17;;;4.60;;
579;SDS011;276;48.392;9.950;2023-11-22T15:22:16;4.60;;;4.20;;
579;SDS011;276;48.392;9.950;2023-11-22T15:24:44;5.17;;;4.77;;
579;SDS011;276;48.392;9.950;2023-11-22T15:27:10;5.20;;;4.80;;
579;SDS011;276;48.392;9.950;2023-11-22T15:29:36;4.90;;;4.50;;
579;SDS011;276;48.392;9.950;2023-11-22T15:32:04;4.77;;;4.37;;
579;SDS011;276;48.392;9.950;2023-11-22T15:34:30;5.37;;;4.87;;
579;SDS011;276;48.392;9.950;2023-11-22T15:36:56;5.60;;;5.10;;
579;SDS011;276;48.392;9.950;2023-11-22T15:39:23;5.83;;;5.30;;
579;SDS011;276;48.392;9.950;2023-11-22T15:41:49;6.10;;;5.60;;
579;SDS011;276;48.392;9.950;2023-11-22T15:44:16;6.47;;;5.90;;
579;SDS011;276;48.392;9.950;2023-11-22T15:46:44;5.60;;;5.20;;
579;SDS011;276;48.392;9.950;2023-11-22T15:49:09;5.93;;;5.43;;
579;SDS011;276;48.392;9.950;2023-11-22T15:51:38;8.07;;;5.90;;
579;SDS011;276;48.392;9.950;2023-11-22T15:54:04;5.40;;;5.00;;
579;SDS011;276;48.392;9.950;2023-11-22T15:56:31;5.70;;;5.20;;